Burnet, TX

10:22 AM CDT on June 24, 2017 (GMT -0500)
City of Burnet | | Change Station

Elev 1283 ft 30.75 °N, 98.22 °W | Updated 2 seconds ago

Rain
Rain Mist
70.0 °F
Feels Like 70.0 °F
N
0.9
Wind Variable Wind from WNW
Gusts 2.5 mph

Today
High -- | Low -- °F
--% Chance of Precip.
Yesterday
High -- | Low -- °F
Precip. -- in
Pressure 30.11 in
Visibility 6.0 miles
Clouds Few 4900 ft
Mostly Cloudy 9000 ft
Overcast 11000 ft
Dew Point 68 °F
Humidity 95%
Rainfall 0.39 in
Snow Depth Not available.
6:31 AM 8:39 PM
New Moon, 0% visible
METAR KBMQ 241453Z AUTO 04005KT 6SM RA BR FEW049 BKN090 OVC110 21/19 A3016 RMK AO2 LTG DSNT SW-NW SLP196 P0006 60007 T02110194 51044 $
Pressure 30.11 in
Visibility 6.0 miles
Clouds Few 4900 ft
Mostly Cloudy 9000 ft
Overcast 11000 ft
Dew Point 68 °F
Humidity 95%
Rainfall 0.39 in
Snow Depth Not available.
6:31 AM 8:39 PM
New Moon, 0% visible
METAR KBMQ 241453Z AUTO 04005KT 6SM RA BR FEW049 BKN090 OVC110 21/19 A3016 RMK AO2 LTG DSNT SW-NW SLP196 P0006 60007 T02110194 51044 $

Get Severe Weather Alerts

Thanks for signing up!

Be on the lookout for a verification email in your inbox.

You'll start receiving the daily forecast at 6 AM.

×

10-Day Weather Forecast

Almanac

Astronomy

Jun. 24, 2017 Rise Set
Actual Time
Civil Twilight
Nautical Twilight
Astronomical Twilight
Moon
Length of Visible Light
Length of Day
Tomorrow will be .
, % of the Moon is Illuminated

Today's Extremes

State Highs State Lows

Community

WunderPhotos

Category 6

Welcome to Category 6. This is the collective home for Weather Underground's featured writeups by Dr. Jeff Masters (right), Bob Henson (left), Chris Burt, and other regular contributors.

Nearby

Air Quality

  Air Quality AQ Index Pollutant
Not available.

Snow Depth

Station Depth Elevation

Earthquake Activity

City Distance Mag. Time & Date
Minimum magnitude displayed is 2.5.

Coastal Water Temperatures

Place Temperature

Stations

Nearby Weather Stations

Station Location Temp. Windchill Dew Point Humidity Wind Precip. Elev Updated Type
                   

Watches & Warnings

There are currently no watches in effect.